Time;durP1;ratioP1;P1;durP2;ratioP2;P2;SDS_P1;SDS_P2;PMS_P1;PMS_P2;Temp;Humidity;BMP_temperature;BMP_pressure;BME280_temperature;BME280_humidity;BME280_pressure;Samples;Min_cycle;Max_cycle;Signal;HPM_P1;HPM_P2
2022/09/12 00:01:24;;;;;;;3.33;1.50;;;;;;;;;;7389038;19;19998;-78
2022/09/12 00:03:55;;;;;;;2.20;1.85;;;;;;;;;;7382860;19;20022;-80
2022/09/12 00:06:24;;;;;;;1.55;1.20;;;;;;;;;;7390902;19;20015;-78
2022/09/12 00:09:02;;;;;;;3.20;1.30;;;;;;;;;;7391938;19;20007;-78
2022/09/12 00:11:28;;;;;;;1.35;1.02;;;;;;;;;;7397091;19;20006;-78
2022/09/12 00:13:58;;;;;;;2.15;1.52;;;;;;;;;;7399734;19;20446;-78
2022/09/12 00:16:27;;;;;;;3.28;1.40;;;;;;;;;;7398543;19;20038;-78
2022/09/12 00:18:53;;;;;;;1.92;1.73;;;;;;;;;;7398546;19;20525;-78
2022/09/12 00:21:19;;;;;;;1.73;1.40;;;;;;;;;;7397231;19;20006;-77
2022/09/12 00:23:46;;;;;;;2.40;1.70;;;;;;;;;;7394083;19;20583;-78
2022/09/12 00:26:12;;;;;;;1.95;1.33;;;;;;;;;;7398458;19;20077;-78
2022/09/12 00:28:39;;;;;;;1.73;1.60;;;;;;;;;;7397986;19;20014;-78
2022/09/12 00:31:17;;;;;;;1.30;1.20;;;;;;;;;;7397712;19;20361;-78
2022/09/12 00:33:43;;;;;;;1.45;1.35;;;;;;;;;;7396903;19;20009;-78
2022/09/12 00:36:13;;;;;;;1.65;1.52;;;;;;;;;;7392172;19;20022;-78
2022/09/12 00:38:40;;;;;;;1.20;1.10;;;;;;;;;;7393876;19;20002;-78
2022/09/12 00:41:10;;;;;;;2.45;1.15;;;;;;;;;;7393056;19;20028;-79
2022/09/12 00:43:39;;;;;;;1.35;1.13;;;;;;;;;;7393041;19;20035;-78
2022/09/12 00:46:25;;;;;;;1.35;1.20;;;;;;;;;;7395328;19;20022;-78
2022/09/12 00:49:04;;;;;;;1.85;1.33;;;;;;;;;;7390096;19;20006;-78
2022/09/12 00:51:32;;;;;;;2.90;1.60;;;;;;;;;;7393455;19;20105;-78
2022/09/12 00:54:01;;;;;;;1.35;1.25;;;;;;;;;;7391838;19;20757;-78
2022/09/12 00:56:27;;;;;;;3.25;1.30;;;;;;;;;;7394369;19;20011;-78
2022/09/12 00:58:58;;;;;;;1.30;1.00;;;;;;;;;;7395105;19;20006;-78
2022/09/12 01:01:24;;;;;;;2.53;1.40;;;;;;;;;;7390323;19;20442;-78
2022/09/12 01:03:49;;;;;;;3.70;1.70;;;;;;;;;;7391401;19;20016;-77
2022/09/12 01:06:20;;;;;;;1.45;1.35;;;;;;;;;;7383824;19;20006;-74
2022/09/12 01:08:46;;;;;;;3.90;2.20;;;;;;;;;;7388555;19;20014;-74
2022/09/12 01:11:13;;;;;;;2.55;1.85;;;;;;;;;;7389083;19;20062;-74
2022/09/12 01:13:43;;;;;;;5.90;1.65;;;;;;;;;;7388324;19;20085;-74
2022/09/12 01:16:08;;;;;;;1.70;1.38;;;;;;;;;;7389520;19;20021;-74
2022/09/12 01:19:13;;;;;;;1.40;1.23;;;;;;;;;;7392973;19;20069;-73
2022/09/12 01:22:12;;;;;;;1.58;1.30;;;;;;;;;;7387666;19;20050;-74
2022/09/12 01:25:08;;;;;;;1.20;1.10;;;;;;;;;;7390191;19;20006;-74
2022/09/12 01:27:58;;;;;;;1.40;1.20;;;;;;;;;;7394484;19;20002;-74
2022/09/12 01:30:43;;;;;;;1.90;1.20;;;;;;;;;;7393522;19;20018;-74
2022/09/12 01:33:11;;;;;;;1.42;1.23;;;;;;;;;;7394124;19;20006;-74
2022/09/12 01:35:45;;;;;;;1.13;1.02;;;;;;;;;;7392805;19;20010;-74
2022/09/12 01:38:23;;;;;;;1.80;1.52;;;;;;;;;;7392140;19;20413;-74
2022/09/12 01:41:21;;;;;;;1.90;1.70;;;;;;;;;;7396663;19;19998;-74
2022/09/12 01:43:49;;;;;;;3.17;1.40;;;;;;;;;;7390864;19;20022;-74
2022/09/12 01:46:30;;;;;;;1.65;1.40;;;;;;;;;;7394078;19;20027;-73
2022/09/12 01:49:06;;;;;;;1.40;1.15;;;;;;;;;;7394357;19;20010;-74
2022/09/12 01:51:37;;;;;;;1.45;1.17;;;;;;;;;;7395202;19;20007;-73
2022/09/12 01:54:11;;;;;;;1.25;1.10;;;;;;;;;;7393673;19;20024;-74
2022/09/12 01:56:40;;;;;;;1.67;1.40;;;;;;;;;;7391852;19;20006;-74
2022/09/12 01:59:23;;;;;;;2.10;1.20;;;;;;;;;;7384643;19;20521;-74
2022/09/12 02:01:58;;;;;;;1.35;1.15;;;;;;;;;;7394104;19;20006;-74
2022/09/12 02:04:28;;;;;;;1.40;1.25;;;;;;;;;;7392895;19;20015;-74
2022/09/12 02:06:59;;;;;;;1.10;0.90;;;;;;;;;;7394601;19;20380;-74
2022/09/12 02:09:27;;;;;;;1.50;1.40;;;;;;;;;;7393906;19;20346;-74
2022/09/12 02:11:57;;;;;;;2.10;1.20;;;;;;;;;;7393315;19;20007;-74
2022/09/12 02:14:27;;;;;;;1.30;1.20;;;;;;;;;;7393979;19;20029;-74
2022/09/12 02:17:09;;;;;;;1.58;1.10;;;;;;;;;;7396189;19;20036;-74
2022/09/12 02:19:46;;;;;;;1.38;1.23;;;;;;;;;;7395308;19;20018;-74
2022/09/12 02:22:16;;;;;;;1.40;1.25;;;;;;;;;;7391057;19;20009;-74
2022/09/12 02:24:44;;;;;;;1.08;0.98;;;;;;;;;;7394497;19;19998;-74
2022/09/12 02:27:17;;;;;;;2.17;1.40;;;;;;;;;;7390095;19;19999;-74
2022/09/12 02:29:43;;;;;;;1.95;1.58;;;;;;;;;;7394701;19;20006;-74
2022/09/12 02:32:29;;;;;;;1.38;1.27;;;;;;;;;;7388853;19;20006;-74
2022/09/12 02:35:46;;;;;;;2.05;1.52;;;;;;;;;;7391156;19;20360;-74
2022/09/12 02:38:21;;;;;;;;;;;;;;;;;;7390088;19;20022;-74
2022/09/12 02:40:46;;;;;;;0.80;0.80;;;;;;;;;;7395088;19;19994;-74
2022/09/12 02:43:12;;;;;;;1.67;1.30;;;;;;;;;;7391178;19;20003;-74
2022/09/12 02:45:37;;;;;;;1.48;1.10;;;;;;;;;;7387798;19;20130;-74
2022/09/12 02:48:21;;;;;;;1.40;1.27;;;;;;;;;;7388662;19;20002;-74
2022/09/12 02:50:46;;;;;;;2.10;1.42;;;;;;;;;;7394559;19;20047;-74
2022/09/12 02:53:12;;;;;;;1.17;1.08;;;;;;;;;;7390572;19;20006;-74
2022/09/12 02:55:40;;;;;;;1.13;1.05;;;;;;;;;;7391931;19;20374;-74
2022/09/12 02:58:12;;;;;;;1.45;1.27;;;;;;;;;;7392668;19;20449;-74
2022/09/12 03:00:56;;;;;;;1.52;1.30;;;;;;;;;;7390691;19;20486;-73
2022/09/12 03:03:48;;;;;;;2.55;1.40;;;;;;;;;;7390163;19;20014;-73
2022/09/12 03:06:36;;;;;;;1.20;1.10;;;;;;;;;;7392288;19;20010;-74
2022/09/12 03:09:35;;;;;;;1.30;1.00;;;;;;;;;;7389368;19;20070;-74
2022/09/12 03:12:22;;;;;;;0.80;0.73;;;;;;;;;;7392732;19;20002;-74
2022/09/12 03:15:02;;;;;;;0.73;0.73;;;;;;;;;;7392416;19;20003;-73
2022/09/12 03:17:41;;;;;;;2.80;0.95;;;;;;;;;;7390219;19;20031;-74
2022/09/12 03:20:21;;;;;;;0.90;0.75;;;;;;;;;;7388491;19;20389;-73
2022/09/12 03:22:57;;;;;;;1.13;1.00;;;;;;;;;;7387734;19;20641;-74
2022/09/12 03:25:47;;;;;;;1.23;1.08;;;;;;;;;;7389420;19;20071;-74
2022/09/12 03:28:18;;;;;;;1.38;1.20;;;;;;;;;;7390436;19;20478;-73
2022/09/12 03:30:47;;;;;;;1.15;0.85;;;;;;;;;;7388079;19;20011;-73
2022/09/12 03:33:15;;;;;;;1.20;1.00;;;;;;;;;;7392674;19;20026;-73
2022/09/12 03:35:41;;;;;;;2.10;1.25;;;;;;;;;;7388702;19;20486;-73
2022/09/12 03:38:07;;;;;;;2.25;1.73;;;;;;;;;;7389447;19;20044;-73
2022/09/12 03:40:33;;;;;;;1.73;1.42;;;;;;;;;;7390910;19;19995;-75
2022/09/12 03:42:58;;;;;;;2.00;1.65;;;;;;;;;;7385397;19;20010;-74
2022/09/12 03:45:23;;;;;;;1.50;1.30;;;;;;;;;;7392669;19;20011;-74
2022/09/12 03:47:49;;;;;;;2.67;1.70;;;;;;;;;;7396241;19;20498;-78
2022/09/12 03:50:14;;;;;;;1.88;1.70;;;;;;;;;;7398456;19;20018;-77
2022/09/12 03:52:41;;;;;;;2.20;1.60;;;;;;;;;;7398455;19;20003;-78
2022/09/12 03:55:06;;;;;;;3.42;1.30;;;;;;;;;;7396279;19;20138;-77
2022/09/12 03:57:32;;;;;;;3.22;1.50;;;;;;;;;;7400377;19;20127;-77
2022/09/12 03:59:57;;;;;;;1.38;1.27;;;;;;;;;;7398089;19;20005;-77
2022/09/12 04:02:22;;;;;;;1.10;1.00;;;;;;;;;;7399615;19;20003;-77
2022/09/12 04:04:48;;;;;;;12.20;1.58;;;;;;;;;;7395350;19;20122;-77
2022/09/12 04:07:15;;;;;;;1.50;1.10;;;;;;;;;;7393987;19;20417;-77
2022/09/12 04:09:40;;;;;;;1.73;1.20;;;;;;;;;;7399513;19;19998;-77
2022/09/12 04:12:07;;;;;;;1.17;1.08;;;;;;;;;;7397198;19;19999;-77
2022/09/12 04:14:33;;;;;;;1.20;1.10;;;;;;;;;;7397996;19;20042;-77
2022/09/12 04:16:59;;;;;;;0.90;0.90;;;;;;;;;;7398371;19;20591;-77
2022/09/12 04:19:26;;;;;;;0.70;0.70;;;;;;;;;;7399155;19;20001;-77
2022/09/12 04:21:51;;;;;;;1.05;0.90;;;;;;;;;;7397868;19;20002;-77
2022/09/12 04:24:17;;;;;;;1.25;1.00;;;;;;;;;;7392655;19;19994;-77
2022/09/12 04:26:43;;;;;;;1.00;0.80;;;;;;;;;;7396945;19;20474;-77
2022/09/12 04:29:10;;;;;;;0.88;0.75;;;;;;;;;;7397890;19;20019;-77
2022/09/12 04:31:35;;;;;;;10.02;2.00;;;;;;;;;;7395298;19;20014;-77
2022/09/12 04:34:01;;;;;;;2.10;1.00;;;;;;;;;;7398021;19;20442;-77
2022/09/12 04:36:28;;;;;;;1.55;1.00;;;;;;;;;;7394784;19;20007;-77
2022/09/12 04:38:54;;;;;;;1.40;1.20;;;;;;;;;;7393481;19;20430;-77
2022/09/12 04:41:25;;;;;;;1.95;0.82;;;;;;;;;;7394672;19;20014;-77
2022/09/12 04:43:52;;;;;;;1.08;0.80;;;;;;;;;;7394416;19;20492;-77
2022/09/12 04:46:21;;;;;;;0.88;0.65;;;;;;;;;;7396816;19;20032;-77
2022/09/12 04:48:47;;;;;;;2.95;1.05;;;;;;;;;;7397827;19;20058;-77
2022/09/12 04:51:16;;;;;;;1.35;1.13;;;;;;;;;;7392112;19;19994;-77
2022/09/12 04:53:48;;;;;;;1.30;0.98;;;;;;;;;;7392363;19;20010;-78
2022/09/12 04:56:15;;;;;;;1.85;0.90;;;;;;;;;;7385341;19;20002;-77
2022/09/12 04:58:40;;;;;;;1.60;1.30;;;;;;;;;;7394660;19;20007;-77
2022/09/12 05:01:14;;;;;;;2.80;1.20;;;;;;;;;;7387842;19;20074;-76
2022/09/12 05:03:45;;;;;;;2.28;1.40;;;;;;;;;;7392021;19;20043;-76
2022/09/12 05:06:13;;;;;;;1.05;0.95;;;;;;;;;;7391016;19;20066;-77
2022/09/12 05:08:38;;;;;;;1.35;1.25;;;;;;;;;;7394920;19;20005;-77
2022/09/12 05:11:06;;;;;;;1.60;1.38;;;;;;;;;;7393513;19;20123;-78
2022/09/12 05:13:33;;;;;;;2.97;1.15;;;;;;;;;;7395674;19;20007;-77
2022/09/12 05:16:00;;;;;;;1.70;1.27;;;;;;;;;;7391970;19;20010;-76
2022/09/12 05:18:27;;;;;;;1.55;1.00;;;;;;;;;;7394100;19;20110;-77
2022/09/12 05:20:53;;;;;;;2.72;1.58;;;;;;;;;;7391023;19;20007;-76
2022/09/12 05:23:19;;;;;;;0.88;0.88;;;;;;;;;;7391034;19;20006;-76
2022/09/12 05:25:51;;;;;;;1.63;1.00;;;;;;;;;;7392984;19;20690;-76
2022/09/12 05:28:17;;;;;;;0.90;0.90;;;;;;;;;;7394409;19;20127;-76
2022/09/12 05:30:43;;;;;;;1.35;0.98;;;;;;;;;;7390027;19;20014;-76
2022/09/12 05:33:08;;;;;;;1.20;1.10;;;;;;;;;;7393245;19;20390;-75
2022/09/12 05:35:33;;;;;;;1.23;0.98;;;;;;;;;;7392678;19;20011;-76
2022/09/12 05:37:59;;;;;;;1.60;1.10;;;;;;;;;;7394065;19;20558;-76
2022/09/12 05:40:24;;;;;;;1.15;0.95;;;;;;;;;;7395099;19;20002;-76
2022/09/12 05:42:49;;;;;;;1.45;1.13;;;;;;;;;;7393119;19;20066;-76
2022/09/12 05:45:15;;;;;;;1.20;1.10;;;;;;;;;;7390844;19;20013;-76
2022/09/12 05:47:42;;;;;;;1.70;1.27;;;;;;;;;;7394953;19;20006;-76
2022/09/12 05:50:10;;;;;;;3.65;2.00;;;;;;;;;;7390665;19;20002;-76
2022/09/12 05:52:45;;;;;;;2.55;0.95;;;;;;;;;;7391897;19;20077;-76
2022/09/12 05:55:10;;;;;;;;;;;;;;;;;;7391176;19;20011;-76
2022/09/12 05:57:36;;;;;;;1.40;1.20;;;;;;;;;;7391226;19;19978;-76
2022/09/12 06:00:03;;;;;;;1.75;1.42;;;;;;;;;;7392384;19;20007;-76
2022/09/12 06:02:28;;;;;;;1.63;1.40;;;;;;;;;;7392533;19;20011;-76
2022/09/12 06:04:53;;;;;;;1.15;1.05;;;;;;;;;;7390965;19;20066;-75
2022/09/12 06:07:18;;;;;;;1.15;1.05;;;;;;;;;;7391515;19;20012;-76
2022/09/12 06:09:44;;;;;;;2.22;1.05;;;;;;;;;;7393469;19;20016;-76
2022/09/12 06:12:09;;;;;;;2.15;1.10;;;;;;;;;;7394087;19;20386;-76
2022/09/12 06:14:35;;;;;;;1.42;1.10;;;;;;;;;;7388295;19;20021;-76
2022/09/12 06:17:01;;;;;;;1.13;0.80;;;;;;;;;;7390577;19;20010;-75
2022/09/12 06:19:26;;;;;;;1.08;0.90;;;;;;;;;;7391662;19;20003;-75
2022/09/12 06:21:52;;;;;;;0.88;0.88;;;;;;;;;;7389852;19;20006;-75
2022/09/12 06:24:19;;;;;;;1.00;0.90;;;;;;;;;;7391634;19;20025;-75
2022/09/12 06:26:46;;;;;;;1.17;1.00;;;;;;;;;;7390407;19;20069;-75
2022/09/12 06:29:12;;;;;;;2.20;1.55;;;;;;;;;;7388377;19;20014;-76
2022/09/12 06:31:40;;;;;;;1.95;1.20;;;;;;;;;;7383216;19;20048;-78
2022/09/12 06:34:08;;;;;;;1.33;1.13;;;;;;;;;;7385981;19;20786;-74
2022/09/12 06:36:36;;;;;;;1.20;1.10;;;;;;;;;;7390690;19;20480;-74
2022/09/12 06:39:06;;;;;;;1.20;1.10;;;;;;;;;;7387857;19;20010;-76
2022/09/12 06:41:32;;;;;;;3.70;1.00;;;;;;;;;;7392888;19;20023;-76
2022/09/12 06:43:58;;;;;;;2.63;1.30;;;;;;;;;;7387189;19;20010;-76
2022/09/12 06:46:25;;;;;;;1.15;1.00;;;;;;;;;;7390556;19;20021;-76
2022/09/12 06:48:51;;;;;;;3.00;1.08;;;;;;;;;;7392219;19;20002;-76
2022/09/12 06:51:17;;;;;;;1.38;1.27;;;;;;;;;;7392127;19;20006;-76
2022/09/12 06:53:45;;;;;;;1.10;1.00;;;;;;;;;;7392287;19;20431;-76
2022/09/12 06:56:16;;;;;;;1.00;0.98;;;;;;;;;;7390417;19;20010;-76
2022/09/12 06:58:42;;;;;;;1.30;1.20;;;;;;;;;;7394178;19;19997;-76
2022/09/12 07:01:14;;;;;;;0.85;0.85;;;;;;;;;;7390781;19;20577;-76
2022/09/12 07:03:39;;;;;;;1.00;0.93;;;;;;;;;;7386943;19;20007;-76
2022/09/12 07:06:08;;;;;;;2.55;0.90;;;;;;;;;;7386483;19;20029;-74
2022/09/12 07:08:36;;;;;;;1.10;0.80;;;;;;;;;;7392586;19;20003;-74
2022/09/12 07:11:22;;;;;;;0.93;0.85;;;;;;;;;;7392268;19;20135;-74
2022/09/12 07:13:50;;;;;;;0.95;0.88;;;;;;;;;;7393748;19;20018;-73
2022/09/12 07:16:16;;;;;;;0.95;0.90;;;;;;;;;;7390335;19;20006;-74
2022/09/12 07:18:42;;;;;;;0.70;0.70;;;;;;;;;;7392580;19;20015;-74
2022/09/12 07:21:13;;;;;;;0.80;0.80;;;;;;;;;;7387979;19;20007;-74
2022/09/12 07:23:40;;;;;;;0.68;0.65;;;;;;;;;;7387613;19;19999;-74
2022/09/12 07:26:07;;;;;;;0.60;0.60;;;;;;;;;;7388514;19;20006;-74
2022/09/12 07:28:33;;;;;;;0.93;0.75;;;;;;;;;;7392124;19;19998;-74
2022/09/12 07:31:10;;;;;;;1.67;0.82;;;;;;;;;;7391932;19;20007;-74
2022/09/12 07:33:37;;;;;;;1.05;0.90;;;;;;;;;;7388912;19;20028;-74
2022/09/12 07:36:04;;;;;;;0.70;0.70;;;;;;;;;;7388876;19;20011;-74
2022/09/12 07:38:30;;;;;;;0.80;0.65;;;;;;;;;;7390885;19;20029;-74
2022/09/12 07:40:55;;;;;;;2.13;1.30;;;;;;;;;;7393573;19;19994;-75
2022/09/12 07:43:21;;;;;;;2.80;0.98;;;;;;;;;;7387634;19;20453;-74
2022/09/12 07:45:46;;;;;;;1.13;1.02;;;;;;;;;;7389677;19;20078;-74
2022/09/12 07:48:12;;;;;;;0.85;0.85;;;;;;;;;;7389920;19;20125;-74
2022/09/12 07:50:38;;;;;;;1.08;0.98;;;;;;;;;;7389018;19;20021;-74
2022/09/12 07:53:04;;;;;;;1.25;1.00;;;;;;;;;;7390569;19;20003;-74
2022/09/12 07:55:31;;;;;;;1.02;0.93;;;;;;;;;;7390621;19;20018;-74
2022/09/12 07:57:56;;;;;;;1.15;1.05;;;;;;;;;;7393559;19;19998;-74
2022/09/12 08:00:21;;;;;;;1.67;1.27;;;;;;;;;;7386888;19;20003;-74
2022/09/12 08:02:51;;;;;;;2.53;1.23;;;;;;;;;;7389199;19;20037;-75
2022/09/12 08:05:18;;;;;;;1.77;1.20;;;;;;;;;;7390626;19;20010;-74
2022/09/12 08:07:43;;;;;;;3.40;1.50;;;;;;;;;;7392236;19;20009;-74
2022/09/12 08:10:09;;;;;;;1.77;1.27;;;;;;;;;;7389767;19;20617;-74
2022/09/12 08:12:35;;;;;;;1.38;0.98;;;;;;;;;;7385410;19;20016;-74
2022/09/12 08:15:01;;;;;;;1.02;0.88;;;;;;;;;;7390077;19;19998;-75
2022/09/12 08:17:27;;;;;;;1.08;0.98;;;;;;;;;;7387819;19;19994;-74
2022/09/12 08:19:53;;;;;;;1.15;0.95;;;;;;;;;;7387651;19;19998;-74
2022/09/12 08:22:20;;;;;;;1.25;1.15;;;;;;;;;;7385908;19;20010;-75
2022/09/12 08:24:47;;;;;;;1.48;1.15;;;;;;;;;;7387675;19;20007;-74
2022/09/12 08:27:13;;;;;;;1.10;0.90;;;;;;;;;;7390398;19;20010;-75
2022/09/12 08:29:39;;;;;;;1.25;1.10;;;;;;;;;;7386285;19;20335;-75
2022/09/12 08:32:04;;;;;;;1.02;0.93;;;;;;;;;;7385555;19;20021;-75
2022/09/12 08:34:29;;;;;;;1.30;1.10;;;;;;;;;;7398251;19;19999;-74
2022/09/12 08:36:55;;;;;;;2.35;1.10;;;;;;;;;;7399037;19;20007;-74
2022/09/12 08:39:21;;;;;;;1.35;1.25;;;;;;;;;;7394538;19;19999;-75
2022/09/12 08:41:53;;;;;;;2.70;1.10;;;;;;;;;;7395793;19;20006;-75
2022/09/12 08:45:00;;;;;;;2.05;1.25;;;;;;;;;;7394710;19;20023;-75
2022/09/12 08:47:43;;;;;;;1.80;1.40;;;;;;;;;;7397975;19;20490;-75
2022/09/12 08:50:11;;;;;;;2.10;1.63;;;;;;;;;;7392711;19;20010;-75
2022/09/12 08:52:50;;;;;;;1.35;1.20;;;;;;;;;;7394329;19;20022;-75
2022/09/12 08:55:32;;;;;;;1.60;1.20;;;;;;;;;;7396527;19;20115;-75
2022/09/12 08:57:59;;;;;;;1.90;1.70;;;;;;;;;;7393520;19;20519;-75
2022/09/12 09:00:35;;;;;;;2.30;1.30;;;;;;;;;;7396897;19;20017;-86
2022/09/12 09:03:00;;;;;;;1.58;1.42;;;;;;;;;;7399529;19;20018;-86
2022/09/12 09:05:48;;;;;;;3.70;1.38;;;;;;;;;;7393454;19;20160;-74
2022/09/12 09:08:28;;;;;;;2.08;1.83;;;;;;;;;;7392981;19;20466;-74
2022/09/12 09:11:01;;;;;;;3.05;1.30;;;;;;;;;;7394078;19;20035;-74
2022/09/12 09:16:49;;;;;;;1.70;1.60;;;;;;;;;;7388078;19;20056;-74
2022/09/12 09:19:20;;;;;;;3.08;1.52;;;;;;;;;;7394728;19;20349;-74
2022/09/12 09:22:01;;;;;;;2.83;1.70;;;;;;;;;;7392198;19;20014;-74
2022/09/12 09:24:37;;;;;;;1.92;1.73;;;;;;;;;;7393662;19;20011;-74
2022/09/12 09:27:10;;;;;;;1.50;1.40;;;;;;;;;;7392777;19;20011;-74
2022/09/12 09:29:44;;;;;;;5.72;2.00;;;;;;;;;;7389306;19;19998;-74
2022/09/12 09:32:16;;;;;;;2.30;1.33;;;;;;;;;;7394782;19;20077;-74
2022/09/12 09:34:42;;;;;;;1.67;1.58;;;;;;;;;;7395142;19;20024;-75
2022/09/12 09:37:17;;;;;;;1.98;1.55;;;;;;;;;;7387971;19;20390;-74
2022/09/12 09:40:16;;;;;;;1.60;1.45;;;;;;;;;;7394834;19;20006;-74
2022/09/12 09:42:52;;;;;;;2.13;1.75;;;;;;;;;;7391145;19;20318;-74
2022/09/12 09:45:23;;;;;;;4.72;1.85;;;;;;;;;;7392127;19;20014;-74
2022/09/12 09:48:14;;;;;;;2.65;1.50;;;;;;;;;;7396590;19;20024;-75
2022/09/12 09:50:39;;;;;;;1.50;1.30;;;;;;;;;;7393601;19;20037;-75
2022/09/12 09:53:10;;;;;;;5.82;1.58;;;;;;;;;;7393603;19;20470;-75
2022/09/12 09:55:41;;;;;;;1.70;1.42;;;;;;;;;;7393822;19;20006;-75
2022/09/12 09:58:06;;;;;;;2.53;1.77;;;;;;;;;;7395162;19;20003;-75
2022/09/12 10:00:37;;;;;;;3.30;1.50;;;;;;;;;;7390309;19;20497;-75
2022/09/12 10:03:24;;;;;;;2.00;1.80;;;;;;;;;;7393600;19;20011;-74
2022/09/12 10:05:57;;;;;;;1.67;1.40;;;;;;;;;;7394765;19;20345;-75
2022/09/12 10:08:34;;;;;;;2.92;1.30;;;;;;;;;;7392471;19;20015;-74
2022/09/12 10:11:25;;;;;;;2.03;1.33;;;;;;;;;;7389486;19;20003;-75
2022/09/12 10:13:57;;;;;;;1.40;1.30;;;;;;;;;;7394053;19;20028;-74
2022/09/12 10:16:46;;;;;;;1.60;1.50;;;;;;;;;;7394261;19;20010;-75
2022/09/12 10:19:20;;;;;;;2.15;1.70;;;;;;;;;;7392646;19;20003;-75
2022/09/12 10:21:51;;;;;;;1.63;1.50;;;;;;;;;;7395724;19;20006;-75
2022/09/12 10:24:40;;;;;;;2.15;1.40;;;;;;;;;;7389333;19;20019;-75
2022/09/12 10:27:19;;;;;;;3.75;1.70;;;;;;;;;;7395570;19;20122;-74
2022/09/12 10:29:48;;;;;;;1.55;1.45;;;;;;;;;;7388742;19;20018;-75
2022/09/12 10:32:54;;;;;;;1.85;1.70;;;;;;;;;;7392994;19;20083;-75
2022/09/12 10:35:32;;;;;;;1.65;1.50;;;;;;;;;;7391285;19;20639;-75
2022/09/12 10:38:27;;;;;;;2.67;1.70;;;;;;;;;;7385619;19;20007;-75
2022/09/12 10:41:02;;;;;;;1.83;1.50;;;;;;;;;;7387832;19;19998;-75
2022/09/12 10:43:42;;;;;;;1.50;1.40;;;;;;;;;;7388892;19;20008;-75
2022/09/12 10:46:17;;;;;;;1.40;1.30;;;;;;;;;;7390204;19;20010;-75
2022/09/12 10:48:49;;;;;;;1.70;1.55;;;;;;;;;;7390050;19;20469;-75
2022/09/12 10:51:44;;;;;;;1.73;1.40;;;;;;;;;;7393310;19;20006;-74
2022/09/12 10:54:16;;;;;;;3.65;1.67;;;;;;;;;;7386788;19;20030;-74
2022/09/12 10:57:12;;;;;;;11.95;1.48;;;;;;;;;;7389889;19;20010;-75
2022/09/12 11:00:26;;;;;;;1.40;1.30;;;;;;;;;;7388687;19;20321;-75
2022/09/12 11:03:23;;;;;;;0.80;0.80;;;;;;;;;;7387998;19;20010;-75
2022/09/12 11:06:04;;;;;;;0.90;0.90;;;;;;;;;;7384260;19;19998;-74
2022/09/12 11:09:09;;;;;;;1.48;1.13;;;;;;;;;;7390935;19;20011;-74
2022/09/12 11:11:58;;;;;;;1.50;1.40;;;;;;;;;;7391065;19;20006;-74
2022/09/12 11:14:50;;;;;;;1.67;1.40;;;;;;;;;;7390660;19;20006;-74
2022/09/12 11:17:24;;;;;;;1.55;1.38;;;;;;;;;;7390564;19;20351;-75
2022/09/12 11:20:27;;;;;;;1.33;0.88;;;;;;;;;;7389648;19;20010;-74
2022/09/12 11:23:30;;;;;;;1.25;1.10;;;;;;;;;;7389374;19;20009;-75
2022/09/12 11:26:17;;;;;;;2.17;1.20;;;;;;;;;;7390864;19;20065;-75
2022/09/12 11:29:32;;;;;;;3.13;1.45;;;;;;;;;;7385434;19;20007;-73
2022/09/12 11:32:31;;;;;;;1.83;1.05;;;;;;;;;;7389899;19;20273;-73
2022/09/12 11:35:27;;;;;;;2.40;1.17;;;;;;;;;;7388929;19;20506;-73
2022/09/12 11:38:35;;;;;;;1.15;0.93;;;;;;;;;;7387624;19;20010;-73
2022/09/12 11:41:32;;;;;;;1.30;1.00;;;;;;;;;;7390241;19;20084;-73
2022/09/12 11:44:19;;;;;;;1.20;1.10;;;;;;;;;;7387888;19;20459;-73
2022/09/12 11:46:50;;;;;;;6.68;1.08;;;;;;;;;;7388718;19;20007;-73
2022/09/12 11:49:26;;;;;;;1.95;1.00;;;;;;;;;;7390401;19;20475;-73
2022/09/12 11:51:59;;;;;;;0.98;0.80;;;;;;;;;;7384721;19;20018;-72
2022/09/12 11:54:34;;;;;;;0.90;0.90;;;;;;;;;;7383755;19;20010;-73
2022/09/12 11:57:13;;;;;;;1.10;0.90;;;;;;;;;;7388976;19;20007;-73
2022/09/12 12:00:10;;;;;;;0.82;0.82;;;;;;;;;;7387986;19;20097;-73
2022/09/12 12:02:40;;;;;;;0.68;0.52;;;;;;;;;;7389761;19;20011;-73
2022/09/12 12:05:24;;;;;;;1.25;0.73;;;;;;;;;;7391294;19;19999;-73
2022/09/12 12:07:56;;;;;;;2.90;0.90;;;;;;;;;;7394141;19;20010;-73
2022/09/12 12:10:42;;;;;;;1.10;0.82;;;;;;;;;;7394330;19;20096;-72
2022/09/12 12:13:14;;;;;;;1.25;0.80;;;;;;;;;;7397097;19;20143;-73
2022/09/12 12:15:45;;;;;;;0.73;0.73;;;;;;;;;;7394534;19;20364;-73
2022/09/12 12:18:18;;;;;;;0.75;0.70;;;;;;;;;;7394727;19;20088;-73
2022/09/12 12:20:43;;;;;;;1.27;1.00;;;;;;;;;;7392884;19;20014;-72
2022/09/12 12:23:30;;;;;;;0.95;0.88;;;;;;;;;;7394469;19;20021;-73
2022/09/12 12:25:58;;;;;;;0.55;0.55;;;;;;;;;;7391515;19;20015;-73
2022/09/12 12:28:43;;;;;;;0.70;0.70;;;;;;;;;;7397904;19;20017;-72
2022/09/12 12:31:09;;;;;;;1.17;0.73;;;;;;;;;;7397185;19;19986;-73
2022/09/12 12:33:40;;;;;;;1.38;0.80;;;;;;;;;;7389652;19;20251;-75
2022/09/12 12:36:28;;;;;;;1.30;0.88;;;;;;;;;;7391491;19;20014;-73
2022/09/12 12:38:53;;;;;;;0.70;0.70;;;;;;;;;;7389917;19;20015;-73
2022/09/12 12:41:22;;;;;;;0.77;0.77;;;;;;;;;;7397597;19;20033;-73
2022/09/12 12:43:53;;;;;;;1.13;0.77;;;;;;;;;;7396665;19;20006;-73
2022/09/12 12:46:23;;;;;;;1.02;0.80;;;;;;;;;;7394211;19;20003;-73
2022/09/12 12:48:56;;;;;;;0.85;0.75;;;;;;;;;;7396277;19;20006;-73
2022/09/12 12:51:26;;;;;;;0.77;0.77;;;;;;;;;;7398474;19;20007;-73
2022/09/12 12:53:54;;;;;;;2.05;0.80;;;;;;;;;;7398062;19;20530;-73
2022/09/12 12:56:28;;;;;;;0.70;0.70;;;;;;;;;;7390356;19;20552;-73
2022/09/12 12:58:59;;;;;;;1.33;0.80;;;;;;;;;;7394213;19;20031;-73
2022/09/12 13:01:24;;;;;;;0.75;0.75;;;;;;;;;;7395342;19;20014;-73
2022/09/12 13:04:03;;;;;;;0.80;0.80;;;;;;;;;;7394748;19;19999;-73
2022/09/12 13:06:39;;;;;;;1.02;0.95;;;;;;;;;;7391788;19;20002;-73
2022/09/12 13:09:09;;;;;;;1.15;0.73;;;;;;;;;;7390252;19;20423;-73
2022/09/12 13:11:38;;;;;;;0.82;0.77;;;;;;;;;;7391228;19;20017;-73
2022/09/12 13:14:08;;;;;;;1.10;0.70;;;;;;;;;;7391792;19;20035;-74
2022/09/12 13:16:37;;;;;;;0.57;0.57;;;;;;;;;;7393365;19;20006;-74
2022/09/12 13:19:12;;;;;;;0.75;0.75;;;;;;;;;;7389891;19;20458;-74
2022/09/12 13:21:38;;;;;;;2.10;0.60;;;;;;;;;;7395844;19;20006;-75
2022/09/12 13:24:17;;;;;;;0.95;0.75;;;;;;;;;;7388411;19;20320;-75
2022/09/12 13:26:45;;;;;;;1.08;0.88;;;;;;;;;;7389666;19;20081;-75
2022/09/12 13:29:22;;;;;;;0.60;0.60;;;;;;;;;;7394286;19;20026;-75
2022/09/12 13:32:08;;;;;;;1.63;1.00;;;;;;;;;;7393197;19;20010;-75
2022/09/12 13:34:40;;;;;;;5.25;1.80;;;;;;;;;;7391582;19;19998;-75
2022/09/12 13:37:26;;;;;;;3.33;0.85;;;;;;;;;;7394644;19;20006;-74
2022/09/12 13:40:19;;;;;;;1.08;0.82;;;;;;;;;;7393446;19;20014;-74
2022/09/12 13:42:48;;;;;;;1.08;0.75;;;;;;;;;;7392040;19;20031;-73
2022/09/12 13:45:27;;;;;;;0.93;0.68;;;;;;;;;;7392334;19;20074;-74
2022/09/12 13:47:58;;;;;;;0.95;0.90;;;;;;;;;;7391458;19;20010;-74
2022/09/12 13:50:27;;;;;;;0.77;0.60;;;;;;;;;;7391926;19;20738;-74
2022/09/12 13:52:57;;;;;;;0.70;0.70;;;;;;;;;;7392282;19;20021;-73
2022/09/12 13:55:39;;;;;;;0.80;0.80;;;;;;;;;;7390449;19;20509;-74
2022/09/12 13:58:20;;;;;;;1.67;0.82;;;;;;;;;;7394142;19;20069;-73
2022/09/12 14:00:46;;;;;;;0.80;0.80;;;;;;;;;;7391327;19;20016;-74
2022/09/12 14:06:09;;;;;;;0.70;0.70;;;;;;;;;;7393665;19;20018;-74
2022/09/12 14:08:39;;;;;;;0.98;0.95;;;;;;;;;;7393449;19;20512;-74
2022/09/12 14:11:15;;;;;;;0.80;0.80;;;;;;;;;;7390476;19;20010;-73
2022/09/12 14:13:40;;;;;;;0.77;0.77;;;;;;;;;;7388445;19;20011;-74
2022/09/12 14:16:10;;;;;;;0.68;0.60;;;;;;;;;;7393485;19;20001;-74
2022/09/12 14:18:37;;;;;;;1.75;0.98;;;;;;;;;;7392642;19;20747;-74
2022/09/12 14:21:34;;;;;;;0.93;0.70;;;;;;;;;;7391480;19;20412;-74
2022/09/12 14:24:00;;;;;;;0.70;0.70;;;;;;;;;;7384999;19;20344;-74
2022/09/12 14:26:31;;;;;;;0.63;0.63;;;;;;;;;;7393431;19;20010;-76
2022/09/12 14:28:57;;;;;;;1.27;0.60;;;;;;;;;;7389566;19;20074;-71
2022/09/12 14:31:33;;;;;;;1.40;0.75;;;;;;;;;;7390462;19;20485;-72
2022/09/12 14:34:15;;;;;;;0.80;0.80;;;;;;;;;;7390839;19;20031;-72
2022/09/12 14:36:45;;;;;;;2.25;1.27;;;;;;;;;;7386328;19;20395;-73
2022/09/12 14:39:32;;;;;;;0.82;0.70;;;;;;;;;;7389024;19;20010;-73
2022/09/12 14:42:05;;;;;;;3.83;1.27;;;;;;;;;;7391468;19;20025;-72
2022/09/12 14:44:32;;;;;;;3.58;1.27;;;;;;;;;;7385515;19;20002;-73
2022/09/12 14:47:10;;;;;;;2.08;1.00;;;;;;;;;;7387415;19;20010;-72
2022/09/12 14:49:36;;;;;;;2.13;1.00;;;;;;;;;;7389530;19;20007;-72
2022/09/12 14:52:27;;;;;;;0.50;0.50;;;;;;;;;;7391298;19;20041;-74
2022/09/12 14:54:56;;;;;;;1.00;0.60;;;;;;;;;;7389358;19;20463;-72
2022/09/12 14:57:37;;;;;;;3.13;1.20;;;;;;;;;;7387486;19;20007;-72
2022/09/12 15:00:12;;;;;;;0.95;0.68;;;;;;;;;;7384994;19;20009;-72
2022/09/12 15:02:38;;;;;;;0.88;0.60;;;;;;;;;;7381877;19;20698;-73
2022/09/12 15:05:07;;;;;;;0.70;0.70;;;;;;;;;;7387979;19;20070;-70
2022/09/12 15:08:00;;;;;;;0.57;0.57;;;;;;;;;;7390606;19;20039;-71
2022/09/12 15:10:36;;;;;;;1.13;0.50;;;;;;;;;;7390203;19;20025;-72
2022/09/12 15:13:04;;;;;;;0.93;0.77;;;;;;;;;;7390180;19;20054;-72
2022/09/12 15:15:30;;;;;;;0.73;0.57;;;;;;;;;;7386230;19;20006;-72
2022/09/12 15:17:56;;;;;;;1.30;0.73;;;;;;;;;;7392030;19;20094;-72
2022/09/12 15:20:22;;;;;;;0.73;0.73;;;;;;;;;;7388959;19;19991;-71
2022/09/12 15:22:48;;;;;;;0.90;0.50;;;;;;;;;;7388429;19;20066;-72
2022/09/12 15:25:13;;;;;;;0.70;0.70;;;;;;;;;;7389011;19;20460;-72